Aviation Digital Data Service (ADDS)

Output produced by TAFs form (1503 UTC 19 January 2017)
found at http://aviationweather.gov/adds/tafs/
 
KLND 191120Z 1912/2012 VRB05KT P6SM FEW120 BKN250 
     FM192200 VRB05KT P6SM SCT060 BKN120 
     FM200300 VRB05KT P6SM VCSH BKN060